Aeroporto :
LOGIN :

Iscrizione | Disclaimer

   EN    FR    IT 

 










Sommario :    VFR   VFR Marginale   IFR   IFR Intensivo   IFR Molto Intensivo
Visibilità : 
Base nubi : 
>= 8 km
>= 3000ft
5 / 8 km
1000 / 3000 ft
1500m / 5 km
500 / 1000 ft
800 / 1500m
200 / 500 ft
< 800m
< 200 ft
Simboli :   Temporali  Nebbia  Neve Forte  Precipitazioni Forti  Vento > 20 kt
SIGMETs :   Varie  Temporali  Ghiacco  Turbolenza  Onda orograficha  Ceneri Vulcaniche






- Altitudine del aeroporto : 327 ft
- Codice IATA : BHX


EGBB - Birmingham

ULTIMO METAR :
  • 061720Z 28008KT 9999 VCSH FEW014CB BKN037 10/08 Q0999

METARs OBSOLETI :
  • 061650Z 36007KT 310V040 9999 VCSH FEW014CB BKN035 12/10 Q0999 RESHRA
  • 061620Z 31017KT 9999 7000N -SHRA FEW018CB SCT039 15/06 Q0998
  • 061550Z 34016KT 9999 -SHRA FEW018CB SCT038 13/07 Q0998
  • 061520Z 32020KT 9999 VCSH FEW036CB SCT048 16/04 Q0997
  • 061450Z 30015KT 260V330 9999 SCT026 15/05 Q0997 RESHRA

TAF TAF EGBB
Valido dal 06 a 18 ore il 07 a 18 ore UTC


061701Z 0618/0718 34008KT 9999 SCT025
TEMPO 0618/0620 7000 SHRA
PROB30
TEMPO 0700/0709 8000 BKN008
TEMPO 0709/0718 8000 -RA
PROB30
TEMPO 0710/0715 RA BKN010
BECMG 0712/0715 04010KT
ATIS : +44 121 780 0910



MetMap, La meteo Aeronautica in un colpo d'occhio ! - Copyright ORBIFLY Dicembre 2007 - Disclaimer

ORBIFLY MET'MAP TEAM :

Programmazione e sviluppo : Alexandra Zaïnal
Concezione : Baudouin d'Aumeries
Aiuto per la programmazione : Marc-Olivier Méhu
Supporto tecnico e logistico : Manuel Goepfert
Aiuto per la traduzione : Arnaldo La Scala

Contatto : metmap@orbifly.com




FONTI E CREDITI :

   NOAA